Hauptseite
METAR-TAF:

METAR-TAF

Flughäfen :

RAF Lakenheath

Lakenheath, England

Breite: 52-25N, Länge: 000-34E, Höhe: 10 m

Beobachtung

Neuester Wetterbericht von vor 31 Minuten, um 00:56 UTC
Windstille
Temperatur 5°C
Luftfeuchtigkeit 70%
Luftdruck 1022 hPa
Sichtweite 10 km oder mehr
Himmel klar

METAR: EGUL 240056Z AUTO 00000KT 9999 CLR 05/00 A3018 RMK AO2 SLP224 T00471005 $

Zeit: 01:27 (01:27 UTC)


TAF: fehlend

Wetterbeobachtungen und Prognosen von mehr als 4000 Flughäfen (METAR und TAF Bericht).

Die verfügbaren Stationen werden durch gelbe und rote Markierungen auf der Karte dargestellt.

Führen Sie die Maus auf sie, um den Namen der Station zu sehen.

Darauf klicken, um die Beobachtung von Wetterbeobachtungen und Prognosen zu sehen.

Um die Karte zu ändern : klicken Sie auf den grünen Tasten mit einem schwarzen Kreuz Zum Vergrößern, auf den grünen Button mit einem Gedankenstrich zu verkleinern, oder auf die grünen Pfeile für benachbarte Karten.


METAR-TAF: